Time;durP1;ratioP1;P1;durP2;ratioP2;P2;SDS_P1;SDS_P2;PMS_P1;PMS_P2;Temp;Humidity;BMP_temperature;BMP_pressure;BME280_temperature;BME280_humidity;BME280_pressure;Samples;Min_cycle;Max_cycle;Signal;HPM_P1;HPM_P2
2023/09/11 00:00:04;;;;;;;;;;;20.70;50.30;;;;;;5034615;28;82774;-56
2023/09/11 00:02:29;;;;;;;;;;;20.60;50.40;;;;;;5036215;28;82414;-55
2023/09/11 00:04:55;;;;;;;;;;;20.70;50.40;;;;;;5035295;28;82383;-53
2023/09/11 00:07:20;;;;;;;;;;;20.70;50.30;;;;;;5031382;28;83725;-56
2023/09/11 00:09:46;;;;;;;;;;;20.60;50.30;;;;;;5033550;28;82087;-56
2023/09/11 00:12:11;;;;;;;;;;;20.60;50.20;;;;;;5031816;28;82606;-52
2023/09/11 00:14:37;;;;;;;;;;;20.60;50.30;;;;;;5034524;28;83557;-56
2023/09/11 00:17:03;;;;;;;;;;;20.60;50.30;;;;;;5034244;28;83483;-51
2023/09/11 00:19:28;;;;;;;;;;;20.60;50.30;;;;;;5032851;28;82593;-54
2023/09/11 00:21:54;;;;;;;;;;;20.60;50.30;;;;;;5032920;28;83081;-57
2023/09/11 00:24:19;;;;;;;;;;;20.60;50.30;;;;;;5037919;28;81509;-57
2023/09/11 00:26:45;;;;;;;;;;;20.60;50.30;;;;;;5032628;28;82664;-52
2023/09/11 00:29:10;;;;;;;;;;;20.50;50.30;;;;;;5036038;28;82176;-56
2023/09/11 00:31:36;;;;;;;;;;;20.50;50.30;;;;;;5037207;28;83443;-58
2023/09/11 00:34:01;;;;;;;;;;;20.50;50.30;;;;;;5033548;28;83114;-53
2023/09/11 00:36:27;;;;;;;;;;;20.50;50.30;;;;;;5036691;28;82333;-55
2023/09/11 00:38:52;;;;;;;;;;;20.50;50.30;;;;;;5037288;28;82631;-55
2023/09/11 00:41:18;;;;;;;;;;;20.50;50.30;;;;;;5035941;28;82387;-51
2023/09/11 00:43:43;;;;;;;;;;;20.50;50.30;;;;;;5037908;28;82058;-57
2023/09/11 00:46:09;;;;;;;;;;;20.50;50.30;;;;;;5039295;28;82407;-54
2023/09/11 00:48:34;;;;;;;;;;;20.50;50.30;;;;;;5036094;28;81415;-57
2023/09/11 00:51:00;;;;;;;;;;;20.50;50.30;;;;;;5037711;28;82428;-53
2023/09/11 00:53:26;;;;;;;;;;;20.40;50.30;;;;;;5037918;28;83505;-52
2023/09/11 00:55:52;;;;;;;;;;;20.40;50.30;;;;;;5032570;27;83688;-56
2023/09/11 00:58:18;;;;;;;;;;;20.40;50.30;;;;;;5038283;28;83640;-53
2023/09/11 01:00:44;;;;;;;;;;;20.40;50.40;;;;;;5035210;28;83175;-54
2023/09/11 01:03:11;;;;;;;;;;;20.40;50.30;;;;;;5036695;28;82048;-55
2023/09/11 01:05:37;;;;;;;;;;;20.30;50.30;;;;;;5038003;28;83279;-55
2023/09/11 01:08:03;;;;;;;;;;;20.40;50.30;;;;;;5037679;28;82117;-57
2023/09/11 01:10:29;;;;;;;;;;;20.30;50.30;;;;;;5035624;27;82555;-52
2023/09/11 01:12:55;;;;;;;;;;;20.30;50.40;;;;;;5034930;28;83578;-54
2023/09/11 01:15:20;;;;;;;;;;;20.30;50.30;;;;;;5039189;28;82106;-55
2023/09/11 01:17:50;;;;;;;;;;;20.30;50.30;;;;;;5035545;27;82764;-54
2023/09/11 01:20:24;;;;;;;;;;;20.30;50.40;;;;;;5031140;28;84379;-56
2023/09/11 01:22:59;;;;;;;;;;;20.20;50.30;;;;;;5038186;28;82095;-54
2023/09/11 01:25:36;;;;;;;;;;;20.20;50.40;;;;;;5036365;28;83540;-54
2023/09/11 01:28:20;;;;;;;;;;;20.20;50.40;;;;;;5037562;28;83492;-55
2023/09/11 01:30:46;;;;;;;;;;;20.20;50.40;;;;;;5035687;27;82009;-56
2023/09/11 01:33:12;;;;;;;;;;;20.20;50.30;;;;;;5037626;28;82364;-57
2023/09/11 01:35:37;;;;;;;;;;;20.20;50.40;;;;;;5035930;28;82105;-55
2023/09/11 01:38:03;;;;;;;;;;;20.20;50.40;;;;;;5037928;28;82756;-54
2023/09/11 01:40:31;;;;;;;;;;;20.20;50.30;;;;;;5032634;28;82359;-56
2023/09/11 01:42:56;;;;;;;;;;;20.20;50.40;;;;;;5034444;28;82488;-55
2023/09/11 01:45:23;;;;;;;;;;;20.10;50.40;;;;;;5036428;28;82995;-53
2023/09/11 01:47:50;;;;;;;;;;;20.10;50.30;;;;;;5036271;28;83099;-54
2023/09/11 01:50:17;;;;;;;;;;;20.10;50.40;;;;;;5036057;28;82076;-56
2023/09/11 01:52:44;;;;;;;;;;;20.10;50.40;;;;;;5033823;28;83911;-54
2023/09/11 01:55:09;;;;;;;;;;;20.10;50.40;;;;;;5038179;28;82050;-56
2023/09/11 01:57:35;;;;;;;;;;;20.10;50.40;;;;;;5034121;28;82920;-56
2023/09/11 02:00:00;;;;;;;;;;;20.00;50.40;;;;;;5036632;28;83334;-55
2023/09/11 02:02:29;;;;;;;;;;;20.00;50.30;;;;;;5034594;28;81364;-52
2023/09/11 02:04:55;;;;;;;;;;;20.10;50.30;;;;;;5036415;28;83379;-55
2023/09/11 02:07:20;;;;;;;;;;;20.00;50.30;;;;;;5034877;28;83335;-56
2023/09/11 02:09:46;;;;;;;;;;;20.00;50.40;;;;;;5037421;28;82907;-57
2023/09/11 02:12:11;;;;;;;;;;;20.00;50.40;;;;;;5037312;28;83906;-51
2023/09/11 02:14:37;;;;;;;;;;;20.00;50.30;;;;;;5036984;28;82574;-53
2023/09/11 02:17:02;;;;;;;;;;;20.00;50.40;;;;;;5034955;28;82492;-49
2023/09/11 02:19:31;;;;;;;;;;;20.00;50.30;;;;;;5035426;28;83069;-54
2023/09/11 02:21:57;;;;;;;;;;;19.90;50.30;;;;;;5038148;28;81955;-57
2023/09/11 02:24:23;;;;;;;;;;;20.00;50.30;;;;;;5034306;27;83758;-54
2023/09/11 02:26:48;;;;;;;;;;;19.90;50.30;;;;;;5036902;28;82061;-56
2023/09/11 02:29:14;;;;;;;;;;;19.90;50.30;;;;;;5035610;28;82091;-54
2023/09/11 02:31:39;;;;;;;;;;;19.90;50.30;;;;;;5039380;28;82459;-56
2023/09/11 02:34:05;;;;;;;;;;;19.90;50.40;;;;;;5033507;28;82937;-57
2023/09/11 02:36:30;;;;;;;;;;;19.90;50.30;;;;;;5037074;28;84031;-57
2023/09/11 02:38:56;;;;;;;;;;;19.90;50.40;;;;;;5034706;28;83329;-57
2023/09/11 02:41:21;;;;;;;;;;;19.80;50.40;;;;;;5037323;28;82033;-55
2023/09/11 02:43:47;;;;;;;;;;;19.80;50.40;;;;;;5033812;28;82061;-52
2023/09/11 02:46:12;;;;;;;;;;;19.80;50.40;;;;;;5034810;28;83089;-53
2023/09/11 02:48:45;;;;;;;;;;;19.80;50.40;;;;;;5034509;28;82052;-52
2023/09/11 02:51:11;;;;;;;;;;;19.80;50.40;;;;;;5034638;28;83994;-50
2023/09/11 02:53:36;;;;;;;;;;;19.80;50.50;;;;;;5038215;28;85998;-53
2023/09/11 02:56:02;;;;;;;;;;;19.70;50.30;;;;;;5034634;27;82210;-53
2023/09/11 02:58:27;;;;;;;;;;;19.70;50.40;;;;;;5032537;28;83994;-55
2023/09/11 03:00:53;;;;;;;;;;;19.70;50.50;;;;;;5036484;28;82025;-56
2023/09/11 03:03:18;;;;;;;;;;;19.70;50.40;;;;;;5035469;28;83004;-56
2023/09/11 03:05:44;;;;;;;;;;;19.70;50.40;;;;;;5032335;28;83033;-54
2023/09/11 03:08:11;;;;;;;;;;;19.70;50.40;;;;;;5036347;28;82633;-52
2023/09/11 03:10:37;;;;;;;;;;;19.70;50.40;;;;;;5033890;27;82396;-55
2023/09/11 03:13:03;;;;;;;;;;;19.60;50.40;;;;;;5036316;28;83715;-56
2023/09/11 03:15:29;;;;;;;;;;;19.60;51.00;;;;;;5036299;28;81305;-55
2023/09/11 03:17:55;;;;;;;;;;;19.60;50.30;;;;;;5035991;28;82413;-57
2023/09/11 03:20:21;;;;;;;;;;;19.60;50.40;;;;;;5035627;28;82096;-57
2023/09/11 03:22:46;;;;;;;;;;;19.60;50.40;;;;;;5035264;28;82982;-56
2023/09/11 03:25:12;;;;;;;;;;;19.60;50.40;;;;;;5032688;28;83258;-55
2023/09/11 03:27:37;;;;;;;;;;;19.50;50.50;;;;;;5032583;28;83540;-54
2023/09/11 03:30:03;;;;;;;;;;;19.60;50.40;;;;;;5037395;28;82000;-56
2023/09/11 03:32:29;;;;;;;;;;;19.50;50.40;;;;;;5036519;28;82201;-52
2023/09/11 03:34:54;;;;;;;;;;;19.50;50.40;;;;;;5035037;28;82254;-55
2023/09/11 03:37:20;;;;;;;;;;;19.50;50.50;;;;;;5038253;28;82592;-51
2023/09/11 03:39:46;;;;;;;;;;;19.50;50.40;;;;;;5036052;28;81347;-54
2023/09/11 03:42:11;;;;;;;;;;;19.50;50.50;;;;;;5033995;28;82354;-55
2023/09/11 03:44:37;;;;;;;;;;;19.50;50.40;;;;;;5032900;28;83172;-55
2023/09/11 03:47:02;;;;;;;;;;;19.50;50.40;;;;;;5036466;28;83110;-52
2023/09/11 03:49:28;;;;;;;;;;;19.40;50.30;;;;;;5034385;28;83621;-56
2023/09/11 03:51:53;;;;;;;;;;;19.40;50.30;;;;;;5032201;28;83448;-54
2023/09/11 03:54:19;;;;;;;;;;;19.40;50.40;;;;;;5035307;28;81996;-51
2023/09/11 03:56:44;;;;;;;;;;;19.40;50.40;;;;;;5034776;28;82641;-54
2023/09/11 03:59:10;;;;;;;;;;;19.40;50.50;;;;;;5035741;28;83105;-51
2023/09/11 04:01:35;;;;;;;;;;;19.40;50.50;;;;;;5035120;28;82605;-53
2023/09/11 04:04:01;;;;;;;;;;;19.30;50.40;;;;;;5040365;28;82333;-57
2023/09/11 04:06:26;;;;;;;;;;;19.30;50.50;;;;;;5037071;28;82115;-57
2023/09/11 04:08:52;;;;;;;;;;;19.30;50.40;;;;;;5039888;28;82692;-56
2023/09/11 04:11:19;;;;;;;;;;;19.30;50.50;;;;;;5037004;28;84002;-56
2023/09/11 04:13:44;;;;;;;;;;;19.30;50.50;;;;;;5037590;28;82071;-54
2023/09/11 04:16:10;;;;;;;;;;;19.20;50.50;;;;;;5039058;28;82692;-55
2023/09/11 04:18:35;;;;;;;;;;;19.20;50.40;;;;;;5039817;28;83471;-55
2023/09/11 04:21:05;;;;;;;;;;;19.20;50.50;;;;;;5039727;28;81814;-53
2023/09/11 04:23:31;;;;;;;;;;;19.20;50.50;;;;;;5036730;28;83541;-56
2023/09/11 04:25:56;;;;;;;;;;;19.20;50.50;;;;;;5038806;28;82152;-56
2023/09/11 04:28:22;;;;;;;;;;;19.20;50.50;;;;;;5033230;28;81991;-53
2023/09/11 04:30:47;;;;;;;;;;;19.20;50.60;;;;;;5037515;28;83148;-55
2023/09/11 04:33:13;;;;;;;;;;;19.10;50.50;;;;;;5035960;28;82151;-53
2023/09/11 04:35:38;;;;;;;;;;;19.10;51.20;;;;;;5034111;28;82996;-54
2023/09/11 04:38:04;;;;;;;;;;;19.10;50.50;;;;;;5035331;28;83175;-56
2023/09/11 04:40:29;;;;;;;;;;;19.10;50.60;;;;;;5042138;28;81984;-54
2023/09/11 04:42:55;;;;;;;;;;;19.10;50.60;;;;;;5034875;28;83381;-51
2023/09/11 04:45:20;;;;;;;;;;;19.10;50.60;;;;;;5033550;28;82071;-56
2023/09/11 04:47:46;;;;;;;;;;;19.10;50.60;;;;;;5037896;28;81865;-54
2023/09/11 04:50:11;;;;;;;;;;;19.10;50.60;;;;;;5035705;28;83396;-55
2023/09/11 04:52:37;;;;;;;;;;;19.10;50.50;;;;;;5032466;28;81932;-56
2023/09/11 04:55:03;;;;;;;;;;;19.00;50.50;;;;;;5036853;27;81979;-53
2023/09/11 04:57:28;;;;;;;;;;;19.10;50.50;;;;;;5038462;28;83296;-54
2023/09/11 04:59:54;;;;;;;;;;;19.00;50.60;;;;;;5030667;28;84261;-53
2023/09/11 05:02:19;;;;;;;;;;;19.00;50.50;;;;;;5035647;28;83488;-54
2023/09/11 05:04:46;;;;;;;;;;;19.00;50.70;;;;;;5034276;28;82110;-55
2023/09/11 05:07:12;;;;;;;;;;;19.00;50.60;;;;;;5036524;28;83452;-54
2023/09/11 05:09:38;;;;;;;;;;;19.00;50.60;;;;;;5037755;28;83347;-54
2023/09/11 05:12:04;;;;;;;;;;;19.00;50.50;;;;;;5032019;27;82325;-53
2023/09/11 05:14:29;;;;;;;;;;;19.00;50.60;;;;;;5031623;28;82568;-56
2023/09/11 05:16:55;;;;;;;;;;;19.00;50.60;;;;;;5038880;28;82221;-51
2023/09/11 05:19:20;;;;;;;;;;;19.00;50.50;;;;;;5035026;28;82630;-54
2023/09/11 05:21:46;;;;;;;;;;;19.00;50.50;;;;;;5032500;28;82969;-56
2023/09/11 05:24:11;;;;;;;;;;;19.00;50.50;;;;;;5037354;28;83505;-57
2023/09/11 05:26:38;;;;;;;;;;;18.90;50.50;;;;;;5036967;28;83534;-53
2023/09/11 05:29:03;;;;;;;;;;;18.90;50.60;;;;;;5035398;28;84861;-56
2023/09/11 05:31:29;;;;;;;;;;;19.00;50.60;;;;;;5034547;28;82061;-55
2023/09/11 05:33:54;;;;;;;;;;;18.90;50.60;;;;;;5035755;28;82595;-56
2023/09/11 05:36:20;;;;;;;;;;;18.90;50.60;;;;;;5038831;28;82378;-57
2023/09/11 05:38:47;;;;;;;;;;;19.00;50.60;;;;;;5035632;28;82548;-57
2023/09/11 05:41:13;;;;;;;;;;;19.00;50.60;;;;;;5028943;28;84101;-56
2023/09/11 05:43:40;;;;;;;;;;;18.90;50.70;;;;;;5033464;28;82214;-57
2023/09/11 05:46:06;;;;;;;;;;;18.90;50.70;;;;;;5041449;28;82125;-57
2023/09/11 05:48:31;;;;;;;;;;;18.90;50.70;;;;;;5026789;28;84273;-52
2023/09/11 05:50:57;;;;;;;;;;;18.90;50.70;;;;;;5030763;28;83200;-53
2023/09/11 05:53:23;;;;;;;;;;;18.90;50.60;;;;;;5037117;28;82694;-55
2023/09/11 05:55:48;;;;;;;;;;;18.90;50.70;;;;;;5033202;28;83616;-55
2023/09/11 05:58:14;;;;;;;;;;;18.90;50.90;;;;;;5031206;28;82455;-55
2023/09/11 06:00:40;;;;;;;;;;;18.80;50.90;;;;;;5034041;28;83033;-54
2023/09/11 06:03:06;;;;;;;;;;;18.80;51.00;;;;;;5034807;28;82939;-56
2023/09/11 06:05:32;;;;;;;;;;;18.90;50.80;;;;;;5034054;28;81390;-53
2023/09/11 06:07:57;;;;;;;;;;;18.90;50.90;;;;;;5032736;28;83372;-54
2023/09/11 06:10:23;;;;;;;;;;;18.90;50.90;;;;;;5034383;28;82139;-53
2023/09/11 06:12:49;;;;;;;;;;;18.80;50.90;;;;;;5036684;28;82937;-53
2023/09/11 06:15:14;;;;;;;;;;;18.80;51.00;;;;;;5030336;28;82824;-56
2023/09/11 06:17:40;;;;;;;;;;;18.80;51.10;;;;;;5032234;28;82085;-54
2023/09/11 06:20:09;;;;;;;;;;;18.80;51.10;;;;;;5034264;28;81936;-56
2023/09/11 06:22:38;;;;;;;;;;;18.90;51.00;;;;;;5036573;28;83812;-53
2023/09/11 06:25:04;;;;;;;;;;;18.80;51.00;;;;;;5032308;28;82192;-53
2023/09/11 06:27:30;;;;;;;;;;;18.90;51.20;;;;;;5030932;28;82676;-53
2023/09/11 06:29:55;;;;;;;;;;;18.80;51.20;;;;;;5036552;28;81485;-55
2023/09/11 06:32:21;;;;;;;;;;;18.90;51.20;;;;;;5037568;28;82245;-55
2023/09/11 06:34:46;;;;;;;;;;;18.80;51.30;;;;;;5037072;28;82994;-55
2023/09/11 06:37:12;;;;;;;;;;;18.80;51.30;;;;;;5035211;28;83201;-52
2023/09/11 06:39:38;;;;;;;;;;;18.80;51.90;;;;;;5035057;28;83002;-52
2023/09/11 06:42:04;;;;;;;;;;;18.80;51.30;;;;;;5035511;28;84304;-55
2023/09/11 06:44:30;;;;;;;;;;;18.80;51.30;;;;;;5033401;28;82240;-53
2023/09/11 06:46:56;;;;;;;;;;;18.80;51.30;;;;;;5033530;28;82430;-55
2023/09/11 06:49:22;;;;;;;;;;;18.80;51.30;;;;;;5039861;28;82837;-54
2023/09/11 06:51:47;;;;;;;;;;;18.80;51.30;;;;;;5032837;28;82120;-55
2023/09/11 06:54:13;;;;;;;;;;;18.80;51.30;;;;;;5037501;28;82491;-54
2023/09/11 06:56:41;;;;;;;;;;;18.80;51.30;;;;;;5033482;28;82103;-56
2023/09/11 06:59:07;;;;;;;;;;;18.80;51.30;;;;;;5034561;28;82647;-52
2023/09/11 07:01:38;;;;;;;;;;;18.80;51.30;;;;;;5029372;28;84267;-57
2023/09/11 07:04:10;;;;;;;;;;;18.80;51.40;;;;;;5027384;28;82142;-52
2023/09/11 07:06:39;;;;;;;;;;;18.80;51.40;;;;;;5034995;28;82933;-51
2023/09/11 07:09:05;;;;;;;;;;;18.80;51.40;;;;;;5036586;28;82228;-53
2023/09/11 07:11:31;;;;;;;;;;;18.80;51.40;;;;;;5033487;28;82176;-53
2023/09/11 07:13:57;;;;;;;;;;;18.80;51.40;;;;;;5028351;28;83217;-55
2023/09/11 07:16:22;;;;;;;;;;;18.80;51.50;;;;;;5033653;28;82170;-54
2023/09/11 07:18:48;;;;;;;;;;;18.80;51.50;;;;;;5037813;28;82671;-52
2023/09/11 07:21:13;;;;;;;;;;;18.80;51.50;;;;;;5035345;28;83799;-53
2023/09/11 07:23:39;;;;;;;;;;;18.80;51.50;;;;;;5034259;28;82198;-52
2023/09/11 07:26:05;;;;;;;;;;;18.80;51.50;;;;;;5034400;28;83015;-54
2023/09/11 07:28:33;;;;;;;;;;;18.80;51.50;;;;;;5034724;28;83175;-55
2023/09/11 07:30:58;;;;;;;;;;;18.80;51.50;;;;;;5033784;28;82836;-50
2023/09/11 07:33:24;;;;;;;;;;;18.80;51.50;;;;;;5032304;28;82486;-53
2023/09/11 07:35:49;;;;;;;;;;;18.80;51.50;;;;;;5038254;28;81913;-56
2023/09/11 07:38:16;;;;;;;;;;;18.80;51.50;;;;;;5035017;28;83246;-57
2023/09/11 07:40:42;;;;;;;;;;;18.80;51.50;;;;;;5030740;28;89392;-53
2023/09/11 07:43:08;;;;;;;;;;;18.80;51.60;;;;;;5033801;28;86193;-53
2023/09/11 07:45:34;;;;;;;;;;;18.80;51.60;;;;;;5033942;28;87431;-56
2023/09/11 07:47:59;;;;;;;;;;;18.80;51.60;;;;;;5029868;28;88885;-55
2023/09/11 07:50:25;;;;;;;;;;;18.80;51.60;;;;;;5030865;28;88680;-54
2023/09/11 07:52:51;;;;;;;;;;;18.80;51.60;;;;;;5034222;28;88415;-53
2023/09/11 07:55:17;;;;;;;;;;;18.80;51.60;;;;;;5038371;28;88080;-56
2023/09/11 07:57:43;;;;;;;;;;;18.80;51.60;;;;;;5032404;28;87889;-55
2023/09/11 08:00:09;;;;;;;;;;;18.80;51.50;;;;;;5033701;28;89701;-54
2023/09/11 08:02:34;;;;;;;;;;;18.80;51.60;;;;;;5031927;28;87174;-53
2023/09/11 08:05:00;;;;;;;;;;;18.80;51.60;;;;;;5034870;28;88815;-56
2023/09/11 08:07:25;;;;;;;;;;;18.80;51.60;;;;;;5034871;28;87575;-54
2023/09/11 08:09:52;;;;;;;;;;;18.80;51.80;;;;;;5029196;28;88209;-53
2023/09/11 08:12:17;;;;;;;;;;;18.80;51.70;;;;;;5034622;28;87471;-54
2023/09/11 08:14:44;;;;;;;;;;;18.80;52.30;;;;;;5032471;28;89398;-54
2023/09/11 08:17:10;;;;;;;;;;;18.80;51.80;;;;;;5034496;28;87522;-53
2023/09/11 08:19:35;;;;;;;;;;;18.80;51.80;;;;;;5029456;28;88377;-52
2023/09/11 08:22:03;;;;;;;;;;;18.80;51.80;;;;;;5036369;28;87577;-53
2023/09/11 08:24:28;;;;;;;;;;;18.80;51.90;;;;;;5036051;28;87630;-55
2023/09/11 08:26:54;;;;;;;;;;;18.80;51.90;;;;;;5031786;28;88539;-56
2023/09/11 08:29:20;;;;;;;;;;;18.90;51.90;;;;;;5031822;28;87551;-55
2023/09/11 08:31:46;;;;;;;;;;;18.80;52.10;;;;;;5034723;28;89062;-54
2023/09/11 08:34:12;;;;;;;;;;;18.90;52.10;;;;;;5030463;28;88122;-55
2023/09/11 08:36:37;;;;;;;;;;;18.90;52.40;;;;;;5025346;28;87951;-51
2023/09/11 08:39:03;;;;;;;;;;;18.90;51.90;;;;;;5038156;28;88024;-57
2023/09/11 08:41:29;;;;;;;;;;;18.90;52.40;;;;;;5034783;28;87885;-50
2023/09/11 08:43:54;;;;;;;;;;;18.90;52.70;;;;;;5030571;28;87860;-54
2023/09/11 08:46:21;;;;;;;;;;;18.90;53.00;;;;;;5031321;28;88105;-52
2023/09/11 08:48:48;;;;;;;;;;;18.90;53.10;;;;;;5033997;28;87073;-52
2023/09/11 08:51:29;;;;;;;;;;;18.90;53.10;;;;;;5032697;28;87635;-55
2023/09/11 08:53:54;;;;;;;;;;;19.00;53.30;;;;;;5028618;28;88623;-55
2023/09/11 08:56:20;;;;;;;;;;;19.00;53.40;;;;;;5032622;28;86391;-51
2023/09/11 08:58:48;;;;;;;;;;;19.00;53.40;;;;;;5037366;28;87052;-54
2023/09/11 09:01:14;;;;;;;;;;;19.00;53.50;;;;;;5032447;28;87317;-53
2023/09/11 09:03:40;;;;;;;;;;;19.00;53.30;;;;;;5031515;28;88050;-52
2023/09/11 09:06:06;;;;;;;;;;;19.00;53.50;;;;;;5031260;28;88297;-52
2023/09/11 09:08:33;;;;;;;;;;;19.00;53.40;;;;;;5033464;28;87102;-54
2023/09/11 09:10:58;;;;;;;;;;;19.00;53.50;;;;;;5032935;28;87620;-54
2023/09/11 09:13:24;;;;;;;;;;;19.10;53.40;;;;;;5029593;28;87957;-51
2023/09/11 09:15:50;;;;;;;;;;;19.10;53.30;;;;;;5032494;28;88048;-54
2023/09/11 09:18:15;;;;;;;;;;;19.10;53.50;;;;;;5038013;28;87807;-54
2023/09/11 09:20:41;;;;;;;;;;;19.10;53.30;;;;;;5032427;28;87652;-55
2023/09/11 09:23:06;;;;;;;;;;;19.10;53.10;;;;;;5033569;28;87287;-54
2023/09/11 09:25:32;;;;;;;;;;;19.10;53.30;;;;;;5033649;28;88149;-54
2023/09/11 09:27:58;;;;;;;;;;;19.10;53.20;;;;;;5033951;28;88143;-51
2023/09/11 09:30:28;;;;;;;;;;;19.10;53.00;;;;;;5032970;27;89022;-53
2023/09/11 09:32:53;;;;;;;;;;;19.10;53.10;;;;;;5031656;28;88485;-53
2023/09/11 09:35:20;;;;;;;;;;;19.10;53.10;;;;;;5032277;28;87049;-56
2023/09/11 09:37:49;;;;;;;;;;;19.10;53.10;;;;;;5033262;28;88072;-49
2023/09/11 09:40:26;;;;;;;;;;;19.20;53.00;;;;;;5030717;28;87599;-51
2023/09/11 09:42:51;;;;;;;;;;;19.20;53.10;;;;;;5034917;28;87028;-53
2023/09/11 09:45:27;;;;;;;;;;;19.20;53.10;;;;;;5033704;28;87511;-55
2023/09/11 09:48:06;;;;;;;;;;;19.20;53.10;;;;;;5029607;28;88223;-54
2023/09/11 09:50:54;;;;;;;;;;;19.20;53.00;;;;;;5032229;28;88693;-56
2023/09/11 09:53:21;;;;;;;;;;;19.20;52.90;;;;;;5030982;28;89501;-53
2023/09/11 09:55:46;;;;;;;;;;;19.20;52.80;;;;;;5034410;28;87474;-54
2023/09/11 09:58:12;;;;;;;;;;;19.20;52.70;;;;;;5031626;28;87560;-54
2023/09/11 10:00:37;;;;;;;;;;;19.30;52.70;;;;;;5027854;28;88682;-56
2023/09/11 10:03:03;;;;;;;;;;;19.30;52.80;;;;;;5034644;28;87133;-48
2023/09/11 10:05:29;;;;;;;;;;;19.30;52.50;;;;;;5034143;28;87683;-52
2023/09/11 10:07:58;;;;;;;;;;;19.30;52.50;;;;;;5032324;28;88184;-52
2023/09/11 10:10:30;;;;;;;;;;;19.30;52.50;;;;;;5031574;28;88520;-52
2023/09/11 10:12:58;;;;;;;;;;;19.40;52.60;;;;;;5031528;28;87744;-56
2023/09/11 10:15:24;;;;;;;;;;;19.40;52.60;;;;;;5030824;28;87325;-56
2023/09/11 10:17:52;;;;;;;;;;;19.40;52.50;;;;;;5027392;28;88935;-53
2023/09/11 10:20:18;;;;;;;;;;;19.40;52.30;;;;;;5033224;28;88413;-55
2023/09/11 10:22:43;;;;;;;;;;;19.40;52.30;;;;;;5033727;28;87127;-56
2023/09/11 10:25:09;;;;;;;;;;;19.40;52.00;;;;;;5028032;28;87553;-55
2023/09/11 10:27:34;;;;;;;;;;;19.40;52.10;;;;;;5033349;28;87929;-52
2023/09/11 10:30:04;;;;;;;;;;;19.40;52.10;;;;;;5031448;28;88322;-54
2023/09/11 10:32:37;;;;;;;;;;;19.50;52.10;;;;;;5032637;28;88572;-51
2023/09/11 10:35:04;;;;;;;;;;;19.50;52.10;;;;;;5029531;28;86537;-53
2023/09/11 10:37:31;;;;;;;;;;;19.50;52.00;;;;;;5028557;28;87441;-54
2023/09/11 10:39:58;;;;;;;;;;;19.50;52.10;;;;;;5030473;28;88433;-55
2023/09/11 10:42:23;;;;;;;;;;;19.60;52.10;;;;;;5030572;28;88072;-55
2023/09/11 10:44:52;;;;;;;;;;;19.60;52.00;;;;;;5030841;28;88671;-53
2023/09/11 10:47:19;;;;;;;;;;;19.60;52.00;;;;;;5028968;27;88636;-51
2023/09/11 10:49:48;;;;;;;;;;;19.60;51.70;;;;;;5034974;28;87257;-53
2023/09/11 10:52:14;;;;;;;;;;;19.70;51.90;;;;;;5030926;28;87644;-57
2023/09/11 10:54:40;;;;;;;;;;;19.70;52.00;;;;;;5030733;28;87320;-53
2023/09/11 10:57:05;;;;;;;;;;;19.70;51.90;;;;;;5029992;28;88123;-53
2023/09/11 10:59:31;;;;;;;;;;;19.70;51.90;;;;;;5033294;28;87364;-52
2023/09/11 11:01:57;;;;;;;;;;;19.70;51.80;;;;;;5027588;28;87229;-55
2023/09/11 11:04:24;;;;;;;;;;;19.80;51.80;;;;;;5028954;28;88796;-53
2023/09/11 11:06:52;;;;;;;;;;;19.80;51.70;;;;;;5032297;28;90752;-54
2023/09/11 11:09:30;;;;;;;;;;;19.80;51.70;;;;;;5034367;28;86982;-54
2023/09/11 11:12:03;;;;;;;;;;;19.80;51.70;;;;;;5031508;28;89691;-52
2023/09/11 11:14:29;;;;;;;;;;;19.90;51.70;;;;;;5030346;28;87195;-54
2023/09/11 11:16:55;;;;;;;;;;;19.90;51.70;;;;;;5031050;28;87490;-55
2023/09/11 11:19:28;;;;;;;;;;;19.90;51.50;;;;;;5029194;28;88402;-56
2023/09/11 11:21:54;;;;;;;;;;;19.90;51.30;;;;;;5028394;28;87232;-54
2023/09/11 11:24:21;;;;;;;;;;;20.00;51.40;;;;;;5030190;28;87773;-55
2023/09/11 11:26:46;;;;;;;;;;;20.00;51.20;;;;;;5029691;28;88654;-54
2023/09/11 11:29:12;;;;;;;;;;;20.00;51.10;;;;;;5031356;28;87207;-55
2023/09/11 11:31:38;;;;;;;;;;;20.00;51.10;;;;;;5032712;28;88465;-55
2023/09/11 11:34:04;;;;;;;;;;;20.10;51.30;;;;;;5030008;28;88257;-56
2023/09/11 11:36:30;;;;;;;;;;;20.10;51.30;;;;;;5031589;28;87342;-55
2023/09/11 11:38:56;;;;;;;;;;;20.10;51.10;;;;;;5025068;28;89103;-54
2023/09/11 11:41:22;;;;;;;;;;;20.10;51.00;;;;;;5028048;28;88911;-52
2023/09/11 11:43:48;;;;;;;;;;;20.10;51.00;;;;;;5033339;28;87517;-55
2023/09/11 11:46:15;;;;;;;;;;;20.20;50.80;;;;;;5030823;28;88330;-53
2023/09/11 11:48:41;;;;;;;;;;;20.20;50.90;;;;;;5030085;28;86376;-53
2023/09/11 11:51:07;;;;;;;;;;;20.20;50.70;;;;;;5029955;28;87267;-52
2023/09/11 11:53:32;;;;;;;;;;;20.20;50.70;;;;;;5033649;28;88359;-53
2023/09/11 11:55:59;;;;;;;;;;;20.20;50.40;;;;;;5027917;28;89245;-53
2023/09/11 11:58:28;;;;;;;;;;;20.20;50.50;;;;;;5028452;28;89558;-56
2023/09/11 12:01:00;;;;;;;;;;;20.30;50.60;;;;;;5028095;28;87203;-56
2023/09/11 12:03:46;;;;;;;;;;;20.30;50.40;;;;;;5030954;28;87025;-55
2023/09/11 12:06:11;;;;;;;;;;;20.30;50.70;;;;;;5029905;28;87778;-54
2023/09/11 12:08:37;;;;;;;;;;;20.30;50.50;;;;;;5024575;28;87186;-53
2023/09/11 12:11:05;;;;;;;;;;;20.30;50.30;;;;;;5030714;28;87179;-55
2023/09/11 12:13:31;;;;;;;;;;;20.30;50.30;;;;;;5029341;28;87416;-55
2023/09/11 12:15:58;;;;;;;;;;;20.40;50.50;;;;;;5030675;28;88256;-51
2023/09/11 12:18:24;;;;;;;;;;;20.50;50.30;;;;;;5028026;28;88626;-56
2023/09/11 12:23:44;;;;;;;;;;;20.50;50.50;;;;;;5033085;28;87589;-53
2023/09/11 12:26:10;;;;;;;;;;;20.50;50.30;;;;;;5031016;28;89205;-54
2023/09/11 12:28:35;;;;;;;;;;;20.50;50.40;;;;;;5032538;28;87085;-54
2023/09/11 12:31:01;;;;;;;;;;;20.50;50.30;;;;;;5035667;28;87553;-57
2023/09/11 12:33:27;;;;;;;;;;;20.50;49.90;;;;;;5031110;28;88499;-54
2023/09/11 12:35:54;;;;;;;;;;;20.50;50.10;;;;;;5029926;28;87305;-51
2023/09/11 12:38:20;;;;;;;;;;;20.60;50.00;;;;;;5037602;28;87455;-52
2023/09/11 12:40:48;;;;;;;;;;;20.60;50.00;;;;;;5033688;28;87198;-55
2023/09/11 12:43:14;;;;;;;;;;;20.60;49.40;;;;;;5029649;28;87647;-54
2023/09/11 12:45:40;;;;;;;;;;;20.60;49.70;;;;;;5029139;28;89239;-52
2023/09/11 12:48:06;;;;;;;;;;;20.60;49.70;;;;;;5031680;28;87104;-54
2023/09/11 12:50:32;;;;;;;;;;;20.60;49.70;;;;;;5036479;27;87917;-52
2023/09/11 12:53:01;;;;;;;;;;;20.70;49.80;;;;;;5028919;28;88326;-56
2023/09/11 12:55:27;;;;;;;;;;;20.70;49.40;;;;;;5030412;28;88653;-55
2023/09/11 12:57:59;;;;;;;;;;;20.70;49.60;;;;;;5037967;28;88748;-52
2023/09/11 13:00:28;;;;;;;;;;;20.70;49.50;;;;;;5029887;28;87161;-54
2023/09/11 13:03:03;;;;;;;;;;;20.70;49.40;;;;;;5031903;28;88413;-54
2023/09/11 13:05:30;;;;;;;;;;;20.70;49.20;;;;;;5027269;28;88094;-51
2023/09/11 13:07:55;;;;;;;;;;;20.80;49.10;;;;;;5034929;28;87135;-52
2023/09/11 13:10:21;;;;;;;;;;;20.80;49.10;;;;;;5029965;28;88071;-55
2023/09/11 13:12:47;;;;;;;;;;;20.80;48.60;;;;;;5029848;28;88085;-52
2023/09/11 13:15:13;;;;;;;;;;;20.90;49.30;;;;;;5033698;28;87405;-51
2023/09/11 13:17:39;;;;;;;;;;;20.90;49.40;;;;;;5029695;27;88060;-53
2023/09/11 13:20:05;;;;;;;;;;;20.90;49.20;;;;;;5035215;28;87966;-57
2023/09/11 13:22:31;;;;;;;;;;;20.90;49.10;;;;;;5031124;28;88746;-52
2023/09/11 13:24:56;;;;;;;;;;;20.90;49.10;;;;;;5030296;28;90858;-55
2023/09/11 13:27:22;;;;;;;;;;;21.00;48.80;;;;;;5036814;28;87347;-55
2023/09/11 13:29:47;;;;;;;;;;;21.00;49.30;;;;;;5027418;28;87106;-54
2023/09/11 13:32:13;;;;;;;;;;;21.00;49.40;;;;;;5030803;28;87357;-55
2023/09/11 13:34:38;;;;;;;;;;;21.00;49.20;;;;;;5030545;28;88162;-53
2023/09/11 13:37:04;;;;;;;;;;;21.00;48.90;;;;;;5030377;28;88564;-55
2023/09/11 13:39:29;;;;;;;;;;;21.00;48.70;;;;;;5032994;28;88538;-54
2023/09/11 13:41:55;;;;;;;;;;;21.10;49.10;;;;;;5034697;28;87030;-56
2023/09/11 13:44:21;;;;;;;;;;;21.10;49.00;;;;;;5034919;28;88557;-53
2023/09/11 13:46:46;;;;;;;;;;;21.10;49.00;;;;;;5030674;28;88860;-52
2023/09/11 13:49:12;;;;;;;;;;;21.10;49.10;;;;;;5030768;28;88074;-55
2023/09/11 13:51:37;;;;;;;;;;;21.10;49.00;;;;;;5031375;28;87390;-55
2023/09/11 13:54:03;;;;;;;;;;;21.10;49.10;;;;;;5035458;28;87109;-54
2023/09/11 13:56:28;;;;;;;;;;;21.20;49.00;;;;;;5027757;27;87176;-53
2023/09/11 13:58:54;;;;;;;;;;;21.20;48.80;;;;;;5028939;28;91286;-51
2023/09/11 14:01:19;;;;;;;;;;;21.20;48.80;;;;;;5034454;28;87090;-55
2023/09/11 14:03:45;;;;;;;;;;;21.20;48.50;;;;;;5035599;28;87571;-57
2023/09/11 14:06:10;;;;;;;;;;;21.20;49.10;;;;;;5025733;28;87500;-56
2023/09/11 14:08:36;;;;;;;;;;;21.30;49.00;;;;;;5031202;28;87349;-54
2023/09/11 14:11:02;;;;;;;;;;;21.20;48.90;;;;;;5032169;28;88310;-52
2023/09/11 14:13:28;;;;;;;;;;;21.20;48.60;;;;;;5035865;28;87014;-53